sensor_id;sensor_type;location;lat;lon;timestamp;pressure;altitude;pressure_sealevel;temperature;humidity
63694;BME280;49839;51.798;10.954;2023-07-20T00:05:38;98706.44;;;16.53;87.50
63694;BME280;49839;51.798;10.954;2023-07-20T00:13:32;98703.00;;;16.42;87.66
63694;BME280;49839;51.798;10.954;2023-07-20T00:36:50;98701.09;;;16.53;83.56
63694;BME280;49839;51.798;10.954;2023-07-20T00:39:18;98707.16;;;16.56;82.76
63694;BME280;49839;51.798;10.954;2023-07-20T01:17:40;98710.09;;;16.32;84.65
63694;BME280;49839;51.798;10.954;2023-07-20T01:25:44;98721.25;;;16.25;84.66
63694;BME280;49839;51.798;10.954;2023-07-20T01:31:13;98720.78;;;16.20;85.12
63694;BME280;49839;51.798;10.954;2023-07-20T01:41:40;98722.72;;;16.18;83.86
63694;BME280;49839;51.798;10.954;2023-07-20T01:44:08;98717.28;;;16.20;84.00
63694;BME280;49839;51.798;10.954;2023-07-20T02:33:49;98729.72;;;16.19;89.05
63694;BME280;49839;51.798;10.954;2023-07-20T02:36:16;98734.44;;;16.16;88.30
63694;BME280;49839;51.798;10.954;2023-07-20T02:38:46;98730.25;;;16.13;88.70
63694;BME280;49839;51.798;10.954;2023-07-20T02:41:13;98732.06;;;16.13;89.47
63694;BME280;49839;51.798;10.954;2023-07-20T02:43:41;98738.22;;;16.13;89.91
63694;BME280;49839;51.798;10.954;2023-07-20T02:46:09;98739.19;;;16.12;91.71
63694;BME280;49839;51.798;10.954;2023-07-20T02:48:37;98740.03;;;16.13;92.27
63694;BME280;49839;51.798;10.954;2023-07-20T02:51:12;98737.38;;;16.13;91.54
63694;BME280;49839;51.798;10.954;2023-07-20T02:53:40;98734.25;;;16.08;90.47
63694;BME280;49839;51.798;10.954;2023-07-20T02:56:08;98739.69;;;16.06;90.73
63694;BME280;49839;51.798;10.954;2023-07-20T02:58:35;98734.53;;;16.05;90.38
63694;BME280;49839;51.798;10.954;2023-07-20T03:01:03;98742.72;;;16.02;90.95
63694;BME280;49839;51.798;10.954;2023-07-20T03:03:31;98737.56;;;16.00;90.17
63694;BME280;49839;51.798;10.954;2023-07-20T03:06:06;98741.19;;;15.99;91.61
63694;BME280;49839;51.798;10.954;2023-07-20T03:08:35;98742.25;;;15.96;91.17
63694;BME280;49839;51.798;10.954;2023-07-20T03:11:03;98749.53;;;15.94;92.02
63694;BME280;49839;51.798;10.954;2023-07-20T03:13:31;98745.66;;;15.98;91.93
63694;BME280;49839;51.798;10.954;2023-07-20T03:15:58;98742.72;;;16.02;91.17
63694;BME280;49839;51.798;10.954;2023-07-20T03:18:26;98743.56;;;16.02;90.52
63694;BME280;49839;51.798;10.954;2023-07-20T03:34:25;98751.34;;;15.94;91.88
63694;BME280;49839;51.798;10.954;2023-07-20T03:36:53;98757.38;;;15.96;91.18
63694;BME280;49839;51.798;10.954;2023-07-20T03:39:22;98759.06;;;15.97;91.68
63694;BME280;49839;51.798;10.954;2023-07-20T03:41:49;98757.69;;;16.03;91.37
63694;BME280;49839;51.798;10.954;2023-07-20T03:44:17;98758.69;;;16.02;90.93
63694;BME280;49839;51.798;10.954;2023-07-20T03:46:45;98756.38;;;15.97;91.10
63694;BME280;49839;51.798;10.954;2023-07-20T03:49:13;98757.25;;;15.97;91.19
63694;BME280;49839;51.798;10.954;2023-07-20T03:51:42;98750.00;;;16.00;90.79
63694;BME280;49839;51.798;10.954;2023-07-20T03:54:10;98757.00;;;16.01;90.64
63694;BME280;49839;51.798;10.954;2023-07-20T03:56:38;98752.06;;;15.96;90.36
63694;BME280;49839;51.798;10.954;2023-07-20T03:59:05;98748.56;;;15.95;90.41
63694;BME280;49839;51.798;10.954;2023-07-20T04:01:33;98744.91;;;15.96;90.07
63694;BME280;49839;51.798;10.954;2023-07-20T04:04:05;98746.38;;;16.01;89.85
63694;BME280;49839;51.798;10.954;2023-07-20T04:06:33;98747.22;;;16.01;89.40
63694;BME280;49839;51.798;10.954;2023-07-20T04:09:03;98745.59;;;16.10;89.67
63694;BME280;49839;51.798;10.954;2023-07-20T04:11:31;98745.34;;;16.13;88.13
63694;BME280;49839;51.798;10.954;2023-07-20T04:13:59;98755.47;;;16.19;87.09
63694;BME280;49839;51.798;10.954;2023-07-20T04:16:26;98753.38;;;16.22;86.87
63694;BME280;49839;51.798;10.954;2023-07-20T04:18:54;98751.44;;;16.66;85.60
63694;BME280;49839;51.798;10.954;2023-07-20T04:21:23;98753.19;;;16.98;82.69
63694;BME280;49839;51.798;10.954;2023-07-20T04:23:51;98749.66;;;16.88;81.65
63694;BME280;49839;51.798;10.954;2023-07-20T04:26:20;98758.56;;;16.77;81.76
63694;BME280;49839;51.798;10.954;2023-07-20T04:28:48;98758.59;;;16.66;82.63
63694;BME280;49839;51.798;10.954;2023-07-20T04:31:17;98762.03;;;16.57;82.78
63694;BME280;49839;51.798;10.954;2023-07-20T04:33:45;98765.53;;;16.57;83.17
63694;BME280;49839;51.798;10.954;2023-07-20T04:36:12;98766.00;;;16.62;82.20
63694;BME280;49839;51.798;10.954;2023-07-20T04:38:42;98767.09;;;16.60;82.00
63694;BME280;49839;51.798;10.954;2023-07-20T04:41:11;98763.19;;;16.64;81.69
63694;BME280;49839;51.798;10.954;2023-07-20T04:43:42;98768.25;;;16.67;81.98
63694;BME280;49839;51.798;10.954;2023-07-20T04:46:10;98763.28;;;16.73;82.22
63694;BME280;49839;51.798;10.954;2023-07-20T04:56:44;98757.63;;;16.88;80.08
63694;BME280;49839;51.798;10.954;2023-07-20T04:59:16;98756.91;;;16.86;80.19
63694;BME280;49839;51.798;10.954;2023-07-20T05:01:44;98757.63;;;16.88;79.51
63694;BME280;49839;51.798;10.954;2023-07-20T05:04:12;98758.59;;;16.87;80.08
63694;BME280;49839;51.798;10.954;2023-07-20T05:06:44;98757.81;;;16.96;80.03
63694;BME280;49839;51.798;10.954;2023-07-20T05:09:16;98759.63;;;16.95;79.43
63694;BME280;49839;51.798;10.954;2023-07-20T05:11:43;98759.63;;;16.95;79.69
63694;BME280;49839;51.798;10.954;2023-07-20T05:14:15;98764.66;;;16.98;78.86
63694;BME280;49839;51.798;10.954;2023-07-20T05:33:06;98772.34;;;16.92;79.96
63694;BME280;49839;51.798;10.954;2023-07-20T05:35:34;98775.72;;;16.94;81.41
63694;BME280;49839;51.798;10.954;2023-07-20T05:38:03;98779.03;;;16.86;81.07
63694;BME280;49839;51.798;10.954;2023-07-20T05:40:32;98779.84;;;16.77;81.82
63694;BME280;49839;51.798;10.954;2023-07-20T05:43:00;98782.28;;;16.69;82.42
63694;BME280;49839;51.798;10.954;2023-07-20T05:48:11;98766.78;;;16.74;82.68
63694;BME280;49839;51.798;10.954;2023-07-20T05:50:41;98777.41;;;16.74;83.05
63694;BME280;49839;51.798;10.954;2023-07-20T05:53:13;98779.03;;;16.86;83.17
63694;BME280;49839;51.798;10.954;2023-07-20T05:55:41;98784.88;;;17.01;83.67
63694;BME280;49839;51.798;10.954;2023-07-20T05:58:09;98779.50;;;17.22;82.13
63694;BME280;49839;51.798;10.954;2023-07-20T06:03:20;98774.72;;;17.25;81.08
63694;BME280;49839;51.798;10.954;2023-07-20T06:05:49;98776.50;;;17.46;81.79
63694;BME280;49839;51.798;10.954;2023-07-20T06:08:18;98783.63;;;18.34;76.91
63694;BME280;49839;51.798;10.954;2023-07-20T06:10:49;98779.22;;;18.91;74.38
63694;BME280;49839;51.798;10.954;2023-07-20T06:13:18;98770.28;;;19.47;70.84
63694;BME280;49839;51.798;10.954;2023-07-20T06:15:45;98767.66;;;20.10;68.02
63694;BME280;49839;51.798;10.954;2023-07-20T06:18:14;98772.09;;;20.55;65.75
63694;BME280;49839;51.798;10.954;2023-07-20T06:23:19;98766.84;;;20.71;63.85
63694;BME280;49839;51.798;10.954;2023-07-20T06:28:29;98766.28;;;20.24;64.82
63694;BME280;49839;51.798;10.954;2023-07-20T06:31:00;98768.94;;;19.88;66.51
63694;BME280;49839;51.798;10.954;2023-07-20T06:33:28;98763.50;;;19.25;67.98
63694;BME280;49839;51.798;10.954;2023-07-20T06:38:41;98784.63;;;18.62;71.80
63694;BME280;49839;51.798;10.954;2023-07-20T06:41:28;98773.97;;;18.33;73.23
63694;BME280;49839;51.798;10.954;2023-07-20T06:43:59;98768.94;;;18.10;73.38
63694;BME280;49839;51.798;10.954;2023-07-20T06:46:26;98764.56;;;18.00;74.66
63694;BME280;49839;51.798;10.954;2023-07-20T06:57:22;98772.72;;;17.48;76.46
63694;BME280;49839;51.798;10.954;2023-07-20T06:59:50;98767.63;;;17.36;76.76
63694;BME280;49839;51.798;10.954;2023-07-20T07:02:18;98775.31;;;17.29;78.85
63694;BME280;49839;51.798;10.954;2023-07-20T07:18:04;98825.78;;;15.60;93.74
63694;BME280;49839;51.798;10.954;2023-07-20T07:23:16;98842.94;;;15.34;93.68
63694;BME280;49839;51.798;10.954;2023-07-20T07:36:54;98852.31;;;15.04;97.40
63694;BME280;49839;51.798;10.954;2023-07-20T07:39:22;98850.75;;;15.02;96.98
63694;BME280;49839;51.798;10.954;2023-07-20T07:41:53;98856.28;;;14.99;97.44
63694;BME280;49839;51.798;10.954;2023-07-20T07:44:21;98861.84;;;15.07;94.83
63694;BME280;49839;51.798;10.954;2023-07-20T07:46:52;98852.31;;;15.04;95.19
63694;BME280;49839;51.798;10.954;2023-07-20T07:49:20;98858.00;;;15.11;95.36
63694;BME280;49839;51.798;10.954;2023-07-20T07:54:31;98857.41;;;15.18;95.85
63694;BME280;49839;51.798;10.954;2023-07-20T07:56:59;98862.25;;;15.36;97.21
63694;BME280;49839;51.798;10.954;2023-07-20T07:59:27;98861.03;;;15.51;94.08
63694;BME280;49839;51.798;10.954;2023-07-20T08:01:54;98865.28;;;15.54;94.37
63694;BME280;49839;51.798;10.954;2023-07-20T08:04:25;98863.72;;;15.40;93.73
63694;BME280;49839;51.798;10.954;2023-07-20T08:06:52;98867.09;;;15.53;95.22
63694;BME280;49839;51.798;10.954;2023-07-20T08:12:04;98855.63;;;15.53;93.51
63694;BME280;49839;51.798;10.954;2023-07-20T08:14:32;98864.56;;;15.63;94.61
63694;BME280;49839;51.798;10.954;2023-07-20T08:16:59;98867.22;;;15.74;93.92
63694;BME280;49839;51.798;10.954;2023-07-20T08:19:28;98876.72;;;15.88;94.42
63694;BME280;49839;51.798;10.954;2023-07-20T08:21:56;98875.41;;;15.82;92.79
63694;BME280;49839;51.798;10.954;2023-07-20T08:24:23;98870.66;;;15.97;91.74
63694;BME280;49839;51.798;10.954;2023-07-20T08:26:51;98873.22;;;15.98;90.93
63694;BME280;49839;51.798;10.954;2023-07-20T08:29:20;98869.16;;;16.15;92.11
63694;BME280;49839;51.798;10.954;2023-07-20T08:31:48;98871.56;;;16.30;89.55
63694;BME280;49839;51.798;10.954;2023-07-20T08:34:16;98876.78;;;16.52;89.84
63694;BME280;49839;51.798;10.954;2023-07-20T08:36:57;98878.16;;;16.67;89.43
63694;BME280;49839;51.798;10.954;2023-07-20T08:39:25;98877.31;;;16.78;86.81
63694;BME280;49839;51.798;10.954;2023-07-20T08:41:55;98876.78;;;16.84;86.40
63694;BME280;49839;51.798;10.954;2023-07-20T08:44:25;98883.47;;;16.99;87.31
63694;BME280;49839;51.798;10.954;2023-07-20T08:46:54;98883.88;;;17.16;87.31
63694;BME280;49839;51.798;10.954;2023-07-20T08:49:22;98886.56;;;17.25;86.69
63694;BME280;49839;51.798;10.954;2023-07-20T08:51:51;98882.00;;;17.37;85.29
63694;BME280;49839;51.798;10.954;2023-07-20T08:54:20;98892.88;;;17.24;82.85
63694;BME280;49839;51.798;10.954;2023-07-20T08:56:48;98880.56;;;17.02;84.72
63694;BME280;49839;51.798;10.954;2023-07-20T08:59:17;98882.84;;;17.07;83.35
63694;BME280;49839;51.798;10.954;2023-07-20T09:01:47;98888.22;;;17.17;85.52
63694;BME280;49839;51.798;10.954;2023-07-20T09:04:16;98888.91;;;17.19;85.03
63694;BME280;49839;51.798;10.954;2023-07-20T09:06:46;98892.50;;;17.08;84.04
63694;BME280;49839;51.798;10.954;2023-07-20T09:09:14;98891.53;;;17.09;85.63
63694;BME280;49839;51.798;10.954;2023-07-20T09:11:42;98896.56;;;17.12;86.76
63694;BME280;49839;51.798;10.954;2023-07-20T09:14:10;98892.41;;;17.19;85.68
63694;BME280;49839;51.798;10.954;2023-07-20T09:16:49;98895.94;;;17.50;82.39
63694;BME280;49839;51.798;10.954;2023-07-20T09:19:17;98899.03;;;17.76;83.06
63694;BME280;49839;51.798;10.954;2023-07-20T09:21:46;98898.25;;;17.85;82.66
63694;BME280;49839;51.798;10.954;2023-07-20T09:24:14;98901.59;;;17.88;79.58
63694;BME280;49839;51.798;10.954;2023-07-20T09:26:43;98905.41;;;17.64;79.32
63694;BME280;49839;51.798;10.954;2023-07-20T09:29:14;98899.34;;;17.52;80.34
63694;BME280;49839;51.798;10.954;2023-07-20T09:31:42;98906.88;;;17.47;80.26
63694;BME280;49839;51.798;10.954;2023-07-20T09:34:11;98915.28;;;17.22;81.42
63694;BME280;49839;51.798;10.954;2023-07-20T09:36:59;98917.13;;;17.00;82.56
63694;BME280;49839;51.798;10.954;2023-07-20T09:39:28;98916.78;;;16.94;83.94
63694;BME280;49839;51.798;10.954;2023-07-20T09:41:59;98914.13;;;16.94;85.08
63694;BME280;49839;51.798;10.954;2023-07-20T09:44:30;98928.94;;;17.08;84.78
63694;BME280;49839;51.798;10.954;2023-07-20T09:47:03;98924.19;;;17.11;83.86
63694;BME280;49839;51.798;10.954;2023-07-20T09:49:32;98926.50;;;17.25;83.54
63694;BME280;49839;51.798;10.954;2023-07-20T09:52:03;98922.63;;;17.29;81.57
63694;BME280;49839;51.798;10.954;2023-07-20T09:54:31;98921.25;;;17.35;82.92
63694;BME280;49839;51.798;10.954;2023-07-20T09:57:00;98918.63;;;17.45;80.73
63694;BME280;49839;51.798;10.954;2023-07-20T09:59:29;98921.00;;;17.69;78.47
63694;BME280;49839;51.798;10.954;2023-07-20T10:01:58;98922.78;;;17.89;78.77
63694;BME280;49839;51.798;10.954;2023-07-20T10:04:28;98925.19;;;17.92;76.85
63694;BME280;49839;51.798;10.954;2023-07-20T10:06:59;98923.97;;;18.06;76.56
63694;BME280;49839;51.798;10.954;2023-07-20T10:09:31;98929.84;;;18.50;77.03
63694;BME280;49839;51.798;10.954;2023-07-20T10:12:00;98930.38;;;18.53;73.47
63694;BME280;49839;51.798;10.954;2023-07-20T10:14:49;98933.75;;;18.36;73.42
63694;BME280;49839;51.798;10.954;2023-07-20T10:17:21;98927.81;;;18.32;73.58
63694;BME280;49839;51.798;10.954;2023-07-20T10:19:51;98926.28;;;18.30;73.87
63694;BME280;49839;51.798;10.954;2023-07-20T10:22:25;98935.09;;;18.11;72.29
63694;BME280;49839;51.798;10.954;2023-07-20T10:24:53;98925.00;;;18.24;75.59
63694;BME280;49839;51.798;10.954;2023-07-20T10:27:26;98921.75;;;18.21;73.42
63694;BME280;49839;51.798;10.954;2023-07-20T10:29:54;98918.50;;;18.07;75.01
63694;BME280;49839;51.798;10.954;2023-07-20T10:32:23;98922.22;;;18.45;74.74
63694;BME280;49839;51.798;10.954;2023-07-20T10:34:51;98915.06;;;19.33;69.59
63694;BME280;49839;51.798;10.954;2023-07-20T10:37:48;98907.25;;;20.41;65.53
63694;BME280;49839;51.798;10.954;2023-07-20T10:40:30;98902.84;;;20.86;62.71
63694;BME280;49839;51.798;10.954;2023-07-20T10:43:00;98900.13;;;21.21;59.27
63694;BME280;49839;51.798;10.954;2023-07-20T10:45:36;98897.72;;;21.36;58.44
63694;BME280;49839;51.798;10.954;2023-07-20T10:48:13;98894.38;;;21.60;56.88
63694;BME280;49839;51.798;10.954;2023-07-20T10:50:42;98887.91;;;22.21;56.13
63694;BME280;49839;51.798;10.954;2023-07-20T10:53:13;98904.09;;;22.46;54.24
63694;BME280;49839;51.798;10.954;2023-07-20T10:55:44;98903.31;;;22.69;52.66
63694;BME280;49839;51.798;10.954;2023-07-20T10:58:16;98897.25;;;22.67;54.16
63694;BME280;49839;51.798;10.954;2023-07-20T11:00:57;98904.44;;;22.51;54.03
63694;BME280;49839;51.798;10.954;2023-07-20T11:03:27;98900.25;;;22.56;54.86
63694;BME280;49839;51.798;10.954;2023-07-20T11:06:29;98891.72;;;22.77;51.40
63694;BME280;49839;51.798;10.954;2023-07-20T11:09:05;98899.75;;;22.53;51.83
63694;BME280;49839;51.798;10.954;2023-07-20T11:11:35;98888.63;;;22.39;52.15
63694;BME280;49839;51.798;10.954;2023-07-20T11:14:05;98895.97;;;22.21;51.60
63694;BME280;49839;51.798;10.954;2023-07-20T11:16:36;98888.66;;;21.97;53.05
63694;BME280;49839;51.798;10.954;2023-07-20T11:19:04;98892.03;;;21.99;52.78
63694;BME280;49839;51.798;10.954;2023-07-20T11:21:37;98883.31;;;22.05;50.42
63694;BME280;49839;51.798;10.954;2023-07-20T11:24:27;98875.28;;;22.05;50.81
63694;BME280;49839;51.798;10.954;2023-07-20T11:26:58;98887.19;;;22.03;49.59
63694;BME280;49839;51.798;10.954;2023-07-20T11:29:26;98896.06;;;21.69;49.99
63694;BME280;49839;51.798;10.954;2023-07-20T11:31:59;98893.31;;;21.87;50.45
63694;BME280;49839;51.798;10.954;2023-07-20T11:34:30;98885.53;;;21.76;48.22
63694;BME280;49839;51.798;10.954;2023-07-20T11:36:57;98891.25;;;21.39;50.62
63694;BME280;49839;51.798;10.954;2023-07-20T11:39:32;98893.50;;;21.51;51.62
63694;BME280;49839;51.798;10.954;2023-07-20T11:42:00;98883.06;;;21.82;52.31
63694;BME280;49839;51.798;10.954;2023-07-20T11:44:28;98890.81;;;21.51;53.47
63694;BME280;49839;51.798;10.954;2023-07-20T11:47:04;98880.78;;;21.09;54.28
63694;BME280;49839;51.798;10.954;2023-07-20T11:49:35;98881.97;;;20.89;55.50
63694;BME280;49839;51.798;10.954;2023-07-20T11:52:05;98889.72;;;20.74;55.33
63694;BME280;49839;51.798;10.954;2023-07-20T11:54:35;98883.03;;;20.96;51.14
63694;BME280;49839;51.798;10.954;2023-07-20T11:57:17;98881.94;;;21.07;51.14
63694;BME280;49839;51.798;10.954;2023-07-20T11:59:52;98874.91;;;21.06;50.93
63694;BME280;49839;51.798;10.954;2023-07-20T12:02:21;98878.63;;;21.13;50.05
63694;BME280;49839;51.798;10.954;2023-07-20T12:04:49;98883.03;;;20.96;49.75
63694;BME280;49839;51.798;10.954;2023-07-20T12:07:17;98880.03;;;20.99;52.41
63694;BME280;49839;51.798;10.954;2023-07-20T12:10:03;98881.97;;;21.33;50.20
63694;BME280;49839;51.798;10.954;2023-07-20T12:12:31;98883.31;;;21.37;49.93
63694;BME280;49839;51.798;10.954;2023-07-20T12:15:14;98874.56;;;21.53;50.69
63694;BME280;49839;51.798;10.954;2023-07-20T12:17:43;98869.56;;;21.58;50.61
63694;BME280;49839;51.798;10.954;2023-07-20T12:20:11;98868.25;;;21.70;49.23
63694;BME280;49839;51.798;10.954;2023-07-20T12:22:40;98871.28;;;21.67;48.71
63694;BME280;49839;51.798;10.954;2023-07-20T12:25:10;98865.72;;;21.60;46.89
63694;BME280;49839;51.798;10.954;2023-07-20T12:27:37;98864.94;;;21.42;48.45
63694;BME280;49839;51.798;10.954;2023-07-20T12:30:06;98875.13;;;21.65;46.16
63694;BME280;49839;51.798;10.954;2023-07-20T12:32:34;98878.69;;;21.81;46.16
63694;BME280;49839;51.798;10.954;2023-07-20T12:35:02;98874.69;;;21.77;45.24
63694;BME280;49839;51.798;10.954;2023-07-20T12:37:30;98865.81;;;21.85;44.16
63694;BME280;49839;51.798;10.954;2023-07-20T12:39:58;98875.41;;;21.96;43.59
63694;BME280;49839;51.798;10.954;2023-07-20T12:42:27;98866.28;;;22.14;42.29
63694;BME280;49839;51.798;10.954;2023-07-20T12:44:55;98868.91;;;22.06;41.14
63694;BME280;49839;51.798;10.954;2023-07-20T12:47:23;98855.13;;;21.93;41.05
63694;BME280;49839;51.798;10.954;2023-07-20T12:49:51;98863.84;;;21.95;42.58
63694;BME280;49839;51.798;10.954;2023-07-20T12:52:19;98859.06;;;22.15;42.61
63694;BME280;49839;51.798;10.954;2023-07-20T12:54:46;98865.94;;;22.09;42.06
63694;BME280;49839;51.798;10.954;2023-07-20T12:57:14;98861.06;;;22.13;40.83
63694;BME280;49839;51.798;10.954;2023-07-20T12:59:43;98856.50;;;22.05;41.23
63694;BME280;49839;51.798;10.954;2023-07-20T13:02:11;98856.38;;;22.15;41.74
63694;BME280;49839;51.798;10.954;2023-07-20T13:04:39;98854.34;;;22.09;41.81
63694;BME280;49839;51.798;10.954;2023-07-20T13:07:10;98857.38;;;22.14;41.31
63694;BME280;49839;51.798;10.954;2023-07-20T13:09:41;98845.69;;;22.23;41.69
63694;BME280;49839;51.798;10.954;2023-07-20T13:12:08;98847.34;;;22.24;40.92
63694;BME280;49839;51.798;10.954;2023-07-20T13:14:36;98853.22;;;22.28;42.90
63694;BME280;49839;51.798;10.954;2023-07-20T13:17:05;98850.88;;;22.41;42.69
63694;BME280;49839;51.798;10.954;2023-07-20T13:19:34;98852.91;;;22.39;41.81
63694;BME280;49839;51.798;10.954;2023-07-20T13:22:02;98847.22;;;22.42;39.28
63694;BME280;49839;51.798;10.954;2023-07-20T13:24:30;98837.63;;;22.31;40.77
63694;BME280;49839;51.798;10.954;2023-07-20T13:26:58;98850.88;;;22.25;41.25
63694;BME280;49839;51.798;10.954;2023-07-20T13:29:26;98844.97;;;22.21;40.56
63694;BME280;49839;51.798;10.954;2023-07-20T13:31:57;98843.53;;;22.35;39.99
63694;BME280;49839;51.798;10.954;2023-07-20T13:34:27;98834.78;;;22.33;39.79
63694;BME280;49839;51.798;10.954;2023-07-20T13:36:59;98834.13;;;22.47;40.40
63694;BME280;49839;51.798;10.954;2023-07-20T13:39:29;98842.69;;;22.51;40.22
63694;BME280;49839;51.798;10.954;2023-07-20T13:41:57;98837.97;;;22.53;38.80
63694;BME280;49839;51.798;10.954;2023-07-20T13:44:25;98836.00;;;22.55;38.88
63694;BME280;49839;51.798;10.954;2023-07-20T13:46:56;98820.88;;;22.46;38.52
63694;BME280;49839;51.798;10.954;2023-07-20T13:49:45;98830.75;;;22.45;40.22
63694;BME280;49839;51.798;10.954;2023-07-20T13:52:14;98832.78;;;22.43;38.69
63694;BME280;49839;51.798;10.954;2023-07-20T13:54:46;98830.28;;;22.50;39.67
63694;BME280;49839;51.798;10.954;2023-07-20T13:57:19;98832.81;;;22.67;41.11
63694;BME280;49839;51.798;10.954;2023-07-20T13:59:50;98841.03;;;22.82;41.35
63694;BME280;49839;51.798;10.954;2023-07-20T14:02:18;98837.47;;;22.65;40.67
63694;BME280;49839;51.798;10.954;2023-07-20T14:04:50;98829.44;;;22.57;41.29
63694;BME280;49839;51.798;10.954;2023-07-20T14:07:38;98834.28;;;22.54;41.22
63694;BME280;49839;51.798;10.954;2023-07-20T14:10:10;98827.25;;;22.44;40.44
63694;BME280;49839;51.798;10.954;2023-07-20T14:12:40;98833.44;;;22.45;41.02
63694;BME280;49839;51.798;10.954;2023-07-20T14:15:10;98832.75;;;22.19;40.72
63694;BME280;49839;51.798;10.954;2023-07-20T14:17:43;98831.44;;;22.31;40.65
63694;BME280;49839;51.798;10.954;2023-07-20T14:20:14;98826.72;;;22.33;40.43
63694;BME280;49839;51.798;10.954;2023-07-20T14:22:45;98829.41;;;22.25;40.24
63694;BME280;49839;51.798;10.954;2023-07-20T14:25:17;98833.28;;;22.30;40.74
63694;BME280;49839;51.798;10.954;2023-07-20T14:27:46;98825.88;;;22.32;41.13
63694;BME280;49839;51.798;10.954;2023-07-20T14:30:14;98825.22;;;22.30;40.55
63694;BME280;49839;51.798;10.954;2023-07-20T14:32:42;98828.75;;;22.31;42.12
63694;BME280;49839;51.798;10.954;2023-07-20T14:35:10;98830.75;;;22.37;41.25
63694;BME280;49839;51.798;10.954;2023-07-20T14:37:39;98832.44;;;22.30;41.26
63694;BME280;49839;51.798;10.954;2023-07-20T14:40:08;98834.41;;;22.20;41.26
63694;BME280;49839;51.798;10.954;2023-07-20T14:42:36;98834.94;;;22.23;41.39
63694;BME280;49839;51.798;10.954;2023-07-20T14:45:05;98834.75;;;22.16;40.66
63694;BME280;49839;51.798;10.954;2023-07-20T14:47:34;98828.69;;;22.14;40.60
63694;BME280;49839;51.798;10.954;2023-07-20T14:50:06;98830.50;;;21.98;41.85
63694;BME280;49839;51.798;10.954;2023-07-20T14:52:33;98830.22;;;21.75;42.14
63694;BME280;49839;51.798;10.954;2023-07-20T14:55:03;98828.91;;;21.71;43.20
63694;BME280;49839;51.798;10.954;2023-07-20T14:57:31;98825.91;;;21.82;43.08
63694;BME280;49839;51.798;10.954;2023-07-20T14:59:59;98823.88;;;21.76;42.50
63694;BME280;49839;51.798;10.954;2023-07-20T15:02:26;98822.88;;;21.77;43.12
63694;BME280;49839;51.798;10.954;2023-07-20T15:04:54;98819.16;;;21.70;42.33
63694;BME280;49839;51.798;10.954;2023-07-20T15:07:23;98826.66;;;21.58;42.92
63694;BME280;49839;51.798;10.954;2023-07-20T15:09:51;98821.53;;;21.73;43.19
63694;BME280;49839;51.798;10.954;2023-07-20T15:12:20;98824.03;;;21.74;41.66
63694;BME280;49839;51.798;10.954;2023-07-20T15:15:03;98821.06;;;21.85;41.87
63694;BME280;49839;51.798;10.954;2023-07-20T15:17:32;98810.19;;;21.95;41.56
63694;BME280;49839;51.798;10.954;2023-07-20T15:20:01;98808.00;;;21.90;41.94
63694;BME280;49839;51.798;10.954;2023-07-20T15:22:31;98805.16;;;22.00;42.21
63694;BME280;49839;51.798;10.954;2023-07-20T15:24:59;98802.38;;;22.10;41.47
63694;BME280;49839;51.798;10.954;2023-07-20T15:27:29;98805.19;;;22.08;40.63
63694;BME280;49839;51.798;10.954;2023-07-20T15:29:57;98801.09;;;21.88;39.67
63694;BME280;49839;51.798;10.954;2023-07-20T15:32:25;98796.22;;;21.75;40.77
63694;BME280;49839;51.798;10.954;2023-07-20T15:34:53;98804.13;;;21.85;41.72
63694;BME280;49839;51.798;10.954;2023-07-20T15:37:21;98805.16;;;22.00;40.78
63694;BME280;49839;51.798;10.954;2023-07-20T15:39:48;98802.66;;;22.07;40.55
63694;BME280;49839;51.798;10.954;2023-07-20T15:42:16;98801.66;;;22.08;40.54
63694;BME280;49839;51.798;10.954;2023-07-20T15:44:47;98797.00;;;22.10;40.11
63694;BME280;49839;51.798;10.954;2023-07-20T15:47:15;98784.03;;;21.97;40.02
63694;BME280;49839;51.798;10.954;2023-07-20T15:49:45;98800.28;;;21.96;40.69
63694;BME280;49839;51.798;10.954;2023-07-20T15:52:14;98801.81;;;21.98;40.69
63694;BME280;49839;51.798;10.954;2023-07-20T15:54:43;98798.28;;;21.98;40.75
63694;BME280;49839;51.798;10.954;2023-07-20T15:57:11;98798.66;;;22.03;40.42
63694;BME280;49839;51.798;10.954;2023-07-20T15:59:39;98800.47;;;22.02;41.08
63694;BME280;49839;51.798;10.954;2023-07-20T16:02:08;98808.59;;;22.10;41.18
63694;BME280;49839;51.798;10.954;2023-07-20T16:04:36;98798.31;;;22.06;41.65
63694;BME280;49839;51.798;10.954;2023-07-20T16:07:04;98798.47;;;22.04;41.60
63694;BME280;49839;51.798;10.954;2023-07-20T16:09:33;98798.13;;;21.91;41.03
63694;BME280;49839;51.798;10.954;2023-07-20T16:12:03;98795.19;;;21.76;40.43
63694;BME280;49839;51.798;10.954;2023-07-20T16:14:32;98787.97;;;21.69;40.87
63694;BME280;49839;51.798;10.954;2023-07-20T16:17:21;98796.47;;;21.56;41.58
63694;BME280;49839;51.798;10.954;2023-07-20T16:19:51;98791.16;;;21.64;42.44
63694;BME280;49839;51.798;10.954;2023-07-20T16:26:04;98798.56;;;21.36;43.48
63694;BME280;49839;51.798;10.954;2023-07-20T16:28:32;98794.53;;;21.32;42.96
63694;BME280;49839;51.798;10.954;2023-07-20T16:30:59;98796.00;;;21.26;42.90
63694;BME280;49839;51.798;10.954;2023-07-20T16:33:31;98796.53;;;21.30;43.49
63694;BME280;49839;51.798;10.954;2023-07-20T16:36:01;98790.47;;;21.28;43.65
63694;BME280;49839;51.798;10.954;2023-07-20T16:38:29;98788.59;;;21.20;42.37
63694;BME280;49839;51.798;10.954;2023-07-20T16:41:10;98797.25;;;21.14;43.40
63694;BME280;49839;51.798;10.954;2023-07-20T16:43:38;98794.03;;;21.10;43.60
63694;BME280;49839;51.798;10.954;2023-07-20T16:46:10;98800.78;;;21.15;44.34
63694;BME280;49839;51.798;10.954;2023-07-20T16:48:42;98797.72;;;21.09;43.74
63694;BME280;49839;51.798;10.954;2023-07-20T16:51:13;98792.69;;;21.06;43.64